createdAt,value
2023-03-13T00:00:27.272Z,994.04
2023-03-13T00:01:27.251Z,994.04
2023-03-13T00:02:27.310Z,994.00
2023-03-13T00:03:27.880Z,994.03
2023-03-13T00:04:27.239Z,993.99
2023-03-13T00:05:27.232Z,994.02
2023-03-13T00:06:27.228Z,993.97
2023-03-13T00:07:27.298Z,993.91
2023-03-13T00:08:27.238Z,993.94
2023-03-13T00:09:27.927Z,993.93
2023-03-13T00:10:28.650Z,993.91
2023-03-13T00:11:27.218Z,993.87
2023-03-13T00:12:28.022Z,993.94
2023-03-13T00:13:27.996Z,993.82
2023-03-13T00:14:27.167Z,993.81
2023-03-13T00:15:27.155Z,993.80
2023-03-13T00:16:27.195Z,993.75
2023-03-13T00:17:27.145Z,993.75
2023-03-13T00:18:27.216Z,993.75
2023-03-13T00:19:27.134Z,993.71
2023-03-13T00:20:27.395Z,993.74
2023-03-13T00:21:27.140Z,993.65
2023-03-13T00:22:27.874Z,993.64
2023-03-13T00:23:27.144Z,993.62
2023-03-13T00:24:27.093Z,993.56
2023-03-13T00:25:27.623Z,993.66
2023-03-13T00:26:27.649Z,993.58
2023-03-13T00:27:27.074Z,993.58
2023-03-13T00:28:27.248Z,993.60
2023-03-13T00:29:27.063Z,993.60
2023-03-13T00:30:27.089Z,993.50
2023-03-13T00:31:27.988Z,993.51
2023-03-13T00:32:27.103Z,993.50
2023-03-13T00:33:27.482Z,993.48
2023-03-13T00:34:27.739Z,993.42
2023-03-13T00:35:27.962Z,993.44
2023-03-13T00:36:27.494Z,993.39
2023-03-13T00:37:27.012Z,993.35
2023-03-13T00:38:27.312Z,993.39
2023-03-13T00:39:28.030Z,993.30
2023-03-13T00:40:27.117Z,993.31
2023-03-13T00:41:28.452Z,993.33
2023-03-13T00:42:26.999Z,993.32
2023-03-13T00:43:26.993Z,993.29
2023-03-13T00:44:26.960Z,993.26
2023-03-13T00:45:26.993Z,993.29
2023-03-13T00:46:27.052Z,993.22
2023-03-13T00:47:26.946Z,993.19
2023-03-13T00:48:26.959Z,993.21
2023-03-13T00:49:26.967Z,993.22
2023-03-13T00:50:26.953Z,993.27
2023-03-13T00:51:27.360Z,993.24
2023-03-13T00:52:26.907Z,993.23
2023-03-13T00:53:27.005Z,993.21
2023-03-13T00:54:26.904Z,993.22
2023-03-13T00:55:26.918Z,993.14
2023-03-13T00:56:26.875Z,993.10
2023-03-13T00:57:26.885Z,993.10
2023-03-13T00:58:27.048Z,993.18
2023-03-13T00:59:26.867Z,993.15
2023-03-13T01:00:26.854Z,993.15
2023-03-13T01:01:28.310Z,993.10
2023-03-13T01:02:26.932Z,993.14
2023-03-13T01:03:27.025Z,993.15
2023-03-13T01:04:26.817Z,993.10
2023-03-13T01:05:26.829Z,993.10
2023-03-13T01:06:26.819Z,993.08
2023-03-13T01:07:27.655Z,993.09
2023-03-13T01:08:26.861Z,993.05
2023-03-13T01:09:26.801Z,993.03
2023-03-13T01:10:26.788Z,993.06
2023-03-13T01:11:26.779Z,993.07
2023-03-13T01:12:26.779Z,992.98
2023-03-13T01:13:26.899Z,992.94
2023-03-13T01:14:26.763Z,992.96
2023-03-13T01:15:26.760Z,992.92
2023-03-13T01:16:26.783Z,992.87
2023-03-13T01:17:26.746Z,992.88
2023-03-13T01:18:26.739Z,992.83
2023-03-13T01:19:26.760Z,992.77
2023-03-13T01:20:27.680Z,992.76
2023-03-13T01:21:26.780Z,992.72
2023-03-13T01:22:26.742Z,992.64
2023-03-13T01:23:26.792Z,992.71
2023-03-13T01:24:26.719Z,992.70
2023-03-13T01:25:26.694Z,992.57
2023-03-13T01:26:26.684Z,992.54
2023-03-13T01:27:26.673Z,992.60
2023-03-13T01:28:26.670Z,992.53
2023-03-13T01:29:26.690Z,992.47
2023-03-13T01:30:26.665Z,992.47
2023-03-13T01:31:26.684Z,992.39
2023-03-13T01:32:26.659Z,992.40
2023-03-13T01:33:26.639Z,992.45
2023-03-13T01:34:26.646Z,992.41
2023-03-13T01:35:26.661Z,992.33
2023-03-13T01:36:26.622Z,992.30
2023-03-13T01:37:26.609Z,992.30
2023-03-13T01:38:26.636Z,992.24
2023-03-13T01:39:26.654Z,992.23
2023-03-13T01:40:26.587Z,992.19
2023-03-13T01:41:26.587Z,992.24
2023-03-13T01:42:26.586Z,992.23
2023-03-13T01:43:27.680Z,992.18
2023-03-13T01:44:26.576Z,992.16
2023-03-13T01:45:26.547Z,992.13
2023-03-13T01:46:26.621Z,992.03
2023-03-13T01:47:26.555Z,992.07
2023-03-13T01:48:26.535Z,992.00
2023-03-13T01:49:26.536Z,992.03
2023-03-13T01:50:26.527Z,991.97
2023-03-13T01:51:26.527Z,991.98
2023-03-13T01:52:27.959Z,991.89
2023-03-13T01:53:26.524Z,991.91
2023-03-13T01:54:26.596Z,991.86
2023-03-13T01:55:26.495Z,991.79
2023-03-13T01:56:26.504Z,991.71
2023-03-13T01:57:26.484Z,991.80
2023-03-13T01:58:26.482Z,991.66
2023-03-13T01:59:26.636Z,991.73
2023-03-13T02:00:26.456Z,991.60
2023-03-13T02:01:26.480Z,991.56
2023-03-13T02:02:26.527Z,991.65
2023-03-13T02:03:26.460Z,991.56
2023-03-13T02:04:26.446Z,991.52
2023-03-13T02:05:26.425Z,991.49
2023-03-13T02:06:26.435Z,991.49
2023-03-13T02:07:27.273Z,991.49
2023-03-13T02:08:26.434Z,991.47
2023-03-13T02:09:26.693Z,991.45
2023-03-13T02:10:26.421Z,991.45
2023-03-13T02:11:26.392Z,991.40
2023-03-13T02:12:26.400Z,991.41
2023-03-13T02:13:26.533Z,991.37
2023-03-13T02:14:26.400Z,991.31
2023-03-13T02:15:26.340Z,991.28
2023-03-13T02:16:26.408Z,991.27
2023-03-13T02:17:26.342Z,991.12
2023-03-13T02:18:26.343Z,991.21
2023-03-13T02:19:26.341Z,991.16
2023-03-13T02:20:26.350Z,991.10
2023-03-13T02:21:26.323Z,991.04
2023-03-13T02:22:27.121Z,991.09
2023-03-13T02:23:26.321Z,991.07
2023-03-13T02:24:26.310Z,991.03
2023-03-13T02:25:26.278Z,990.97
2023-03-13T02:26:26.277Z,990.85
2023-03-13T02:27:27.142Z,990.82
2023-03-13T02:28:26.292Z,990.77
2023-03-13T02:29:26.300Z,990.73
2023-03-13T02:30:26.248Z,990.74
2023-03-13T02:31:26.310Z,990.71
2023-03-13T02:32:26.550Z,990.62
2023-03-13T02:33:26.458Z,990.60
2023-03-13T02:34:26.472Z,990.58
2023-03-13T02:35:26.226Z,990.49
2023-03-13T02:36:26.270Z,990.47
2023-03-13T02:37:26.693Z,990.44
2023-03-13T02:38:26.492Z,990.32
2023-03-13T02:39:26.699Z,990.33
2023-03-13T02:40:26.704Z,990.34
2023-03-13T02:41:26.924Z,990.39
2023-03-13T02:42:26.155Z,990.34
2023-03-13T02:43:26.145Z,990.34
2023-03-13T02:44:26.148Z,990.29
2023-03-13T02:45:26.333Z,990.19
2023-03-13T02:46:26.362Z,990.27
2023-03-13T02:47:26.348Z,990.12
2023-03-13T02:48:26.117Z,990.15
2023-03-13T02:49:26.114Z,990.14
2023-03-13T02:50:26.382Z,990.15
2023-03-13T02:51:26.577Z,990.09
2023-03-13T02:52:26.103Z,990.07
2023-03-13T02:53:26.091Z,990.02
2023-03-13T02:54:26.080Z,990.02
2023-03-13T02:55:26.126Z,989.92
2023-03-13T02:56:26.071Z,989.98
2023-03-13T02:57:26.844Z,989.95
2023-03-13T02:58:26.060Z,990.00
2023-03-13T02:59:26.050Z,989.98
2023-03-13T03:00:26.073Z,989.98
2023-03-13T03:01:26.040Z,990.03
2023-03-13T03:02:26.038Z,989.78
2023-03-13T03:03:27.020Z,989.85
2023-03-13T03:04:26.049Z,989.79
2023-03-13T03:05:26.035Z,989.92
2023-03-13T03:06:26.104Z,989.84
2023-03-13T03:07:26.968Z,989.85
2023-03-13T03:08:26.058Z,989.80
2023-03-13T03:09:26.006Z,989.51
2023-03-13T03:10:25.998Z,989.59
2023-03-13T03:11:25.968Z,989.59
2023-03-13T03:12:25.968Z,989.67
2023-03-13T03:13:25.958Z,989.80
2023-03-13T03:14:25.960Z,989.75
2023-03-13T03:15:25.992Z,989.88
2023-03-13T03:16:26.000Z,989.61
2023-03-13T03:17:25.929Z,989.47
2023-03-13T03:18:26.176Z,989.48
2023-03-13T03:19:25.961Z,989.57
2023-03-13T03:20:25.933Z,989.52
2023-03-13T03:21:26.175Z,989.54
2023-03-13T03:22:25.907Z,989.51
2023-03-13T03:23:25.971Z,989.56
2023-03-13T03:24:25.885Z,989.53
2023-03-13T03:25:26.003Z,989.44
2023-03-13T03:26:26.012Z,989.50
2023-03-13T03:27:25.860Z,989.48
2023-03-13T03:28:26.044Z,989.33
2023-03-13T03:29:26.239Z,989.31
2023-03-13T03:30:26.733Z,989.35
2023-03-13T03:31:25.867Z,989.33
2023-03-13T03:32:26.308Z,989.39
2023-03-13T03:33:26.068Z,989.36
2023-03-13T03:34:26.246Z,989.36
2023-03-13T03:35:25.835Z,989.33
2023-03-13T03:36:26.061Z,989.34
2023-03-13T03:37:25.786Z,989.33
2023-03-13T03:38:26.507Z,989.24
2023-03-13T03:39:25.777Z,989.29
2023-03-13T03:40:26.097Z,989.23
2023-03-13T03:41:26.522Z,989.29
2023-03-13T03:42:26.103Z,989.27
2023-03-13T03:43:26.526Z,989.33
2023-03-13T03:44:25.742Z,989.09
2023-03-13T03:45:25.784Z,989.11
2023-03-13T03:46:27.208Z,989.05
2023-03-13T03:47:25.797Z,989.00
2023-03-13T03:48:25.944Z,989.04
2023-03-13T03:49:25.942Z,989.14
2023-03-13T03:50:25.862Z,989.25
2023-03-13T03:51:25.738Z,989.18
2023-03-13T03:52:25.974Z,989.14
2023-03-13T03:53:25.974Z,989.20
2023-03-13T03:54:25.679Z,989.21
2023-03-13T03:55:26.005Z,989.12
2023-03-13T03:56:25.982Z,989.06
2023-03-13T03:57:25.662Z,989.06
2023-03-13T03:58:26.607Z,989.16
2023-03-13T03:59:26.636Z,989.12
2023-03-13T04:00:26.665Z,989.08
2023-03-13T04:01:26.564Z,989.03
2023-03-13T04:02:25.684Z,989.05
2023-03-13T04:03:26.751Z,989.02
2023-03-13T04:04:26.547Z,988.89
2023-03-13T04:05:26.477Z,988.94
2023-03-13T04:06:25.676Z,989.06
2023-03-13T04:07:25.596Z,988.91
2023-03-13T04:08:25.684Z,988.88
2023-03-13T04:09:26.300Z,988.86
2023-03-13T04:10:25.628Z,988.91
2023-03-13T04:11:26.329Z,989.07
2023-03-13T04:12:25.573Z,988.90
2023-03-13T04:13:25.544Z,988.93
2023-03-13T04:14:25.542Z,988.96
2023-03-13T04:15:25.534Z,988.94
2023-03-13T04:16:25.594Z,989.03
2023-03-13T04:17:25.531Z,988.93
2023-03-13T04:18:25.525Z,988.96
2023-03-13T04:19:26.376Z,988.92
2023-03-13T04:20:26.148Z,988.72
2023-03-13T04:21:25.529Z,988.98
2023-03-13T04:22:25.646Z,988.84
2023-03-13T04:23:26.504Z,988.88
2023-03-13T04:24:25.503Z,989.03
2023-03-13T04:25:25.513Z,988.96
2023-03-13T04:26:25.577Z,988.91
2023-03-13T04:27:25.454Z,988.87
2023-03-13T04:28:25.807Z,988.90
2023-03-13T04:29:25.447Z,988.95
2023-03-13T04:30:25.601Z,988.92
2023-03-13T04:31:26.027Z,988.99
2023-03-13T04:32:25.470Z,988.93
2023-03-13T04:33:25.427Z,988.89
2023-03-13T04:34:26.238Z,988.84
2023-03-13T04:35:25.537Z,988.71
2023-03-13T04:36:25.527Z,988.87
2023-03-13T04:37:25.503Z,988.82
2023-03-13T04:38:25.656Z,988.70
2023-03-13T04:39:25.638Z,988.77
2023-03-13T04:40:25.369Z,988.76
2023-03-13T04:41:25.386Z,988.78
2023-03-13T04:42:25.884Z,988.78
2023-03-13T04:43:26.385Z,988.71
2023-03-13T04:44:25.401Z,988.82
2023-03-13T04:45:25.341Z,988.65
2023-03-13T04:46:25.365Z,988.82
2023-03-13T04:47:25.360Z,988.66
2023-03-13T04:48:25.336Z,988.74
2023-03-13T04:49:25.340Z,988.73
2023-03-13T04:50:25.311Z,988.68
2023-03-13T04:51:25.366Z,988.79
2023-03-13T04:52:25.440Z,988.85
2023-03-13T04:53:25.295Z,988.69
2023-03-13T04:54:25.310Z,988.70
2023-03-13T04:55:26.280Z,988.67
2023-03-13T04:56:41.800Z,988.63
2023-03-13T04:57:25.282Z,988.63
2023-03-13T04:58:25.258Z,988.48
2023-03-13T04:59:26.127Z,988.65
2023-03-13T05:00:25.289Z,988.50
2023-03-13T05:01:25.296Z,988.60
2023-03-13T05:02:25.265Z,988.45
2023-03-13T05:03:25.229Z,988.41
2023-03-13T05:04:25.218Z,988.42
2023-03-13T05:05:25.348Z,988.42
2023-03-13T05:06:25.210Z,988.45
2023-03-13T05:07:25.208Z,988.24
2023-03-13T05:08:25.244Z,988.49
2023-03-13T05:09:25.180Z,988.39
2023-03-13T05:10:25.251Z,988.29
2023-03-13T05:11:25.179Z,988.42
2023-03-13T05:12:25.269Z,988.29
2023-03-13T05:13:25.164Z,988.32
2023-03-13T05:14:25.146Z,988.24
2023-03-13T05:15:25.140Z,988.25
2023-03-13T05:16:25.185Z,988.25
2023-03-13T05:17:25.164Z,988.22
2023-03-13T05:18:26.107Z,988.31
2023-03-13T05:19:25.160Z,988.32
2023-03-13T05:20:25.109Z,988.24
2023-03-13T05:21:25.329Z,988.28
2023-03-13T05:22:25.106Z,988.27
2023-03-13T05:23:25.143Z,988.30
2023-03-13T05:24:25.100Z,988.24
2023-03-13T05:25:25.066Z,988.27
2023-03-13T05:26:25.068Z,988.33
2023-03-13T05:27:25.104Z,988.41
2023-03-13T05:28:25.046Z,988.31
2023-03-13T05:29:25.038Z,988.30
2023-03-13T05:30:25.036Z,988.28
2023-03-13T05:31:25.135Z,988.25
2023-03-13T05:32:25.138Z,988.29
2023-03-13T05:33:25.032Z,988.27
2023-03-13T05:34:25.005Z,988.35
2023-03-13T05:35:25.028Z,988.34
2023-03-13T05:36:25.013Z,988.27
2023-03-13T05:37:24.984Z,988.27
2023-03-13T05:38:25.062Z,988.29
2023-03-13T05:39:24.961Z,988.31
2023-03-13T05:40:24.981Z,988.34
2023-03-13T05:41:24.951Z,988.33
2023-03-13T05:42:24.943Z,988.24
2023-03-13T05:43:25.093Z,988.21
2023-03-13T05:44:24.931Z,988.26
2023-03-13T05:45:24.944Z,988.33
2023-03-13T05:46:25.177Z,988.24
2023-03-13T05:47:25.120Z,988.29
2023-03-13T05:48:25.015Z,988.22
2023-03-13T05:49:24.910Z,988.22
2023-03-13T05:50:24.939Z,988.28
2023-03-13T05:51:24.910Z,988.23
2023-03-13T05:52:24.893Z,988.35
2023-03-13T05:53:24.924Z,988.31
2023-03-13T05:54:24.879Z,988.29
2023-03-13T05:55:24.872Z,988.27
2023-03-13T05:56:24.950Z,988.24
2023-03-13T05:57:24.847Z,988.21
2023-03-13T05:58:24.938Z,988.27
2023-03-13T05:59:24.846Z,988.18
2023-03-13T06:00:24.815Z,988.18
2023-03-13T06:01:24.825Z,988.21
2023-03-13T06:02:25.704Z,988.15
2023-03-13T06:03:24.947Z,988.23
2023-03-13T06:04:24.905Z,988.26
2023-03-13T06:05:24.805Z,988.25
2023-03-13T06:06:24.784Z,988.21
2023-03-13T06:07:24.835Z,988.10
2023-03-13T06:08:24.786Z,988.17
2023-03-13T06:09:24.808Z,988.21
2023-03-13T06:10:24.758Z,988.13
2023-03-13T06:11:24.748Z,988.10
2023-03-13T06:12:24.788Z,988.15
2023-03-13T06:13:24.740Z,988.21
2023-03-13T06:14:24.726Z,988.19
2023-03-13T06:15:24.747Z,988.19
2023-03-13T06:16:24.754Z,988.20
2023-03-13T06:17:24.770Z,988.26
2023-03-13T06:18:24.790Z,988.20
2023-03-13T06:19:24.698Z,988.30
2023-03-13T06:20:24.885Z,988.19
2023-03-13T06:21:24.944Z,988.28
2023-03-13T06:22:24.897Z,988.28
2023-03-13T06:23:24.701Z,988.26
2023-03-13T06:24:24.667Z,988.23
2023-03-13T06:25:24.645Z,988.34
2023-03-13T06:26:24.635Z,988.41
2023-03-13T06:27:24.728Z,988.37
2023-03-13T06:28:24.825Z,988.36
2023-03-13T06:29:24.975Z,988.42
2023-03-13T06:30:24.641Z,988.38
2023-03-13T06:31:24.939Z,988.40
2023-03-13T06:32:24.661Z,988.39
2023-03-13T06:33:24.705Z,988.32
2023-03-13T06:34:25.172Z,988.24
2023-03-13T06:35:25.037Z,988.36
2023-03-13T06:36:24.623Z,988.26
2023-03-13T06:37:25.445Z,988.29
2023-03-13T06:38:24.591Z,988.21
2023-03-13T06:39:25.270Z,988.25
2023-03-13T06:40:24.554Z,988.18
2023-03-13T06:41:24.578Z,988.30
2023-03-13T06:42:24.549Z,988.29
2023-03-13T06:43:24.589Z,988.19
2023-03-13T06:44:24.649Z,988.20
2023-03-13T06:45:25.440Z,988.17
2023-03-13T06:46:24.627Z,988.12
2023-03-13T06:47:24.526Z,988.22
2023-03-13T06:48:24.511Z,988.14
2023-03-13T06:49:25.284Z,988.15
2023-03-13T06:50:25.443Z,988.33
2023-03-13T06:51:25.348Z,988.22
2023-03-13T06:52:37.493Z,988.18
2023-03-13T06:53:25.456Z,988.24
2023-03-13T06:54:25.346Z,988.25
2023-03-13T06:55:25.503Z,988.23
2023-03-13T06:56:24.472Z,988.24
2023-03-13T06:57:25.511Z,988.16
2023-03-13T06:58:32.524Z,988.23
2023-03-13T06:59:25.603Z,988.14
2023-03-13T07:00:24.413Z,988.21
2023-03-13T07:01:24.444Z,988.19
2023-03-13T07:02:24.401Z,988.16
2023-03-13T07:03:24.421Z,988.14
2023-03-13T07:04:24.545Z,988.10
2023-03-13T07:05:24.556Z,988.09
2023-03-13T07:06:24.385Z,988.07
2023-03-13T07:07:31.754Z,988.09
2023-03-13T07:08:25.254Z,988.02
2023-03-13T07:09:24.436Z,988.02
2023-03-13T07:10:25.207Z,987.96
2023-03-13T07:11:24.376Z,987.92
2023-03-13T07:12:25.136Z,987.98
2023-03-13T07:13:25.292Z,988.05
2023-03-13T07:14:24.413Z,988.00
2023-03-13T07:15:24.347Z,988.01
2023-03-13T07:16:25.333Z,988.01
2023-03-13T07:17:25.196Z,988.02
2023-03-13T07:18:24.335Z,988.07
2023-03-13T07:19:24.403Z,988.11
2023-03-13T07:20:25.192Z,988.11
2023-03-13T07:21:25.302Z,988.10
2023-03-13T07:22:24.579Z,988.17
2023-03-13T07:23:24.320Z,988.13
2023-03-13T07:24:25.367Z,988.24
2023-03-13T07:25:25.179Z,988.27
2023-03-13T07:26:24.357Z,988.26
2023-03-13T07:27:25.314Z,988.21
2023-03-13T07:28:25.125Z,988.28
2023-03-13T07:29:24.279Z,988.25
2023-03-13T07:30:24.311Z,988.32
2023-03-13T07:31:24.459Z,988.27
2023-03-13T07:32:24.429Z,988.23
2023-03-13T07:33:24.440Z,988.11
2023-03-13T07:34:24.427Z,988.13
2023-03-13T07:35:24.196Z,988.07
2023-03-13T07:36:25.149Z,988.11
2023-03-13T07:37:24.215Z,988.15
2023-03-13T07:38:24.222Z,988.18
2023-03-13T07:39:24.248Z,988.17
2023-03-13T07:40:24.255Z,988.17
2023-03-13T07:41:24.187Z,988.16
2023-03-13T07:42:24.196Z,988.08
2023-03-13T07:43:24.981Z,988.22
2023-03-13T07:44:24.410Z,988.15
2023-03-13T07:45:24.124Z,988.12
2023-03-13T07:46:24.159Z,988.13
2023-03-13T07:47:24.216Z,988.13
2023-03-13T07:48:24.150Z,988.04
2023-03-13T07:49:24.165Z,988.12
2023-03-13T07:50:24.204Z,988.00
2023-03-13T07:51:36.843Z,988.01
2023-03-13T07:52:24.890Z,987.89
2023-03-13T07:53:24.162Z,988.01
2023-03-13T07:54:25.517Z,988.08
2023-03-13T07:55:24.842Z,988.04
2023-03-13T07:56:24.687Z,987.98
2023-03-13T07:57:24.074Z,987.98
2023-03-13T07:58:24.046Z,988.01
2023-03-13T07:59:24.172Z,988.05
2023-03-13T08:00:24.384Z,987.97
2023-03-13T08:01:26.845Z,988.00
2023-03-13T08:02:24.095Z,988.08
2023-03-13T08:03:24.071Z,987.81
2023-03-13T08:04:25.003Z,987.98
2023-03-13T08:05:24.131Z,987.92
2023-03-13T08:06:23.976Z,987.89
2023-03-13T08:07:23.972Z,987.83
2023-03-13T08:08:23.963Z,987.84
2023-03-13T08:09:24.589Z,987.74
2023-03-13T08:10:24.462Z,987.78
2023-03-13T08:11:23.948Z,987.67
2023-03-13T08:12:23.940Z,987.65
2023-03-13T08:13:23.938Z,987.51
2023-03-13T08:14:23.937Z,987.42
2023-03-13T08:15:24.717Z,987.44
2023-03-13T08:16:23.939Z,987.42
2023-03-13T08:17:23.907Z,987.41
2023-03-13T08:18:23.896Z,987.38
2023-03-13T08:19:23.915Z,987.43
2023-03-13T08:20:24.744Z,987.25
2023-03-13T08:21:24.382Z,987.37
2023-03-13T08:22:24.808Z,987.26
2023-03-13T08:23:24.712Z,987.17
2023-03-13T08:24:23.885Z,987.10
2023-03-13T08:25:24.772Z,987.31
2023-03-13T08:26:24.674Z,987.34
2023-03-13T08:27:24.836Z,987.25
2023-03-13T08:28:23.844Z,987.27
2023-03-13T08:29:24.641Z,987.26
2023-03-13T08:30:24.281Z,987.25
2023-03-13T08:31:24.351Z,987.24
2023-03-13T08:32:24.650Z,987.26
2023-03-13T08:33:24.771Z,987.12
2023-03-13T08:34:23.821Z,987.17
2023-03-13T08:35:24.598Z,987.13
2023-03-13T08:36:24.014Z,987.24
2023-03-13T08:37:23.780Z,987.12
2023-03-13T08:38:23.941Z,987.20
2023-03-13T08:39:23.753Z,987.21
2023-03-13T08:40:24.611Z,987.26
2023-03-13T08:41:24.513Z,987.26
2023-03-13T08:42:24.677Z,987.38
2023-03-13T08:43:23.870Z,987.32
2023-03-13T08:44:24.210Z,987.26
2023-03-13T08:45:24.641Z,987.27
2023-03-13T08:46:23.786Z,987.29
2023-03-13T08:47:24.358Z,987.32
2023-03-13T08:48:23.781Z,987.30
2023-03-13T08:49:24.514Z,987.30
2023-03-13T08:50:23.675Z,987.37
2023-03-13T08:51:24.601Z,987.33
2023-03-13T08:52:24.514Z,987.34
2023-03-13T08:53:25.121Z,987.52
2023-03-13T08:54:24.554Z,987.32
2023-03-13T08:55:25.586Z,987.27
2023-03-13T08:56:23.706Z,987.32
2023-03-13T08:57:23.754Z,987.29
2023-03-13T08:58:24.422Z,987.36
2023-03-13T08:59:24.587Z,987.28
2023-03-13T09:00:24.521Z,987.29
2023-03-13T09:01:24.399Z,987.33
2023-03-13T09:02:24.188Z,987.32
2023-03-13T09:03:23.635Z,987.25
2023-03-13T09:04:23.651Z,987.38
2023-03-13T09:05:23.585Z,987.27
2023-03-13T09:06:24.424Z,987.35
2023-03-13T09:07:24.234Z,987.26
2023-03-13T09:08:24.492Z,987.31
2023-03-13T09:09:24.713Z,987.25
2023-03-13T09:10:24.581Z,987.31
2023-03-13T09:11:23.826Z,987.31
2023-03-13T09:12:30.709Z,987.39
2023-03-13T09:13:24.538Z,987.40
2023-03-13T09:14:24.427Z,987.46
2023-03-13T09:15:23.772Z,987.38
2023-03-13T09:16:23.610Z,987.36
2023-03-13T09:17:24.403Z,987.32
2023-03-13T09:18:23.596Z,987.42
2023-03-13T09:19:24.462Z,987.41
2023-03-13T09:20:23.553Z,987.36
2023-03-13T09:21:23.534Z,987.43
2023-03-13T09:22:24.918Z,987.63
2023-03-13T09:23:23.522Z,987.46
2023-03-13T09:24:23.442Z,987.54
2023-03-13T09:25:23.534Z,987.63
2023-03-13T09:26:23.678Z,987.50
2023-03-13T09:27:24.206Z,987.42
2023-03-13T09:28:24.893Z,987.49
2023-03-13T09:29:23.443Z,987.43
2023-03-13T09:30:24.425Z,987.41
2023-03-13T09:31:24.395Z,987.43
2023-03-13T09:32:23.604Z,987.41
2023-03-13T09:33:23.389Z,987.45
2023-03-13T09:34:23.384Z,987.47
2023-03-13T09:35:24.200Z,987.44
2023-03-13T09:36:24.525Z,987.55
2023-03-13T09:37:24.262Z,987.49
2023-03-13T09:38:23.397Z,987.49
2023-03-13T09:39:24.335Z,987.52
2023-03-13T09:40:23.383Z,987.48
2023-03-13T09:41:24.145Z,987.64
2023-03-13T09:42:24.299Z,987.66
2023-03-13T09:43:24.202Z,987.60
2023-03-13T09:44:23.339Z,987.43
2023-03-13T09:45:23.361Z,987.48
2023-03-13T09:46:24.231Z,987.54
2023-03-13T09:47:23.337Z,987.51
2023-03-13T09:48:23.278Z,987.55
2023-03-13T09:49:24.141Z,987.57
2023-03-13T09:50:23.310Z,987.53
2023-03-13T09:51:23.596Z,987.55
2023-03-13T09:52:24.104Z,987.47
2023-03-13T09:53:23.318Z,987.61
2023-03-13T09:54:24.170Z,987.62
2023-03-13T09:55:24.073Z,987.55
2023-03-13T09:56:23.550Z,987.50
2023-03-13T09:57:23.357Z,987.59
2023-03-13T09:58:23.974Z,987.43
2023-03-13T09:59:23.241Z,987.38
2023-03-13T10:00:23.570Z,987.29
2023-03-13T10:01:24.051Z,987.13
2023-03-13T10:02:23.706Z,987.22
2023-03-13T10:03:24.086Z,987.27
2023-03-13T10:04:23.278Z,987.18
2023-03-13T10:05:23.167Z,987.17
2023-03-13T10:06:23.208Z,987.06
2023-03-13T10:07:23.942Z,987.11
2023-03-13T10:08:23.172Z,987.12
2023-03-13T10:09:23.187Z,987.00
2023-03-13T10:10:23.240Z,987.06
2023-03-13T10:11:24.071Z,987.01
2023-03-13T10:12:23.173Z,987.11
2023-03-13T10:13:24.134Z,987.18
2023-03-13T10:14:24.043Z,987.06
2023-03-13T10:15:23.125Z,987.07
2023-03-13T10:16:24.154Z,986.99
2023-03-13T10:17:24.002Z,987.03
2023-03-13T10:18:23.910Z,986.95
2023-03-13T10:19:24.077Z,986.92
2023-03-13T10:20:23.972Z,986.97
2023-03-13T10:21:23.883Z,986.89
2023-03-13T10:22:24.037Z,986.92
2023-03-13T10:23:23.960Z,986.93
2023-03-13T10:24:23.319Z,986.92
2023-03-13T10:25:24.009Z,986.78
2023-03-13T10:26:23.148Z,986.67
2023-03-13T10:27:23.009Z,986.78
2023-03-13T10:28:23.347Z,986.71
2023-03-13T10:29:23.010Z,986.74
2023-03-13T10:30:23.201Z,986.73
2023-03-13T10:31:23.057Z,986.76
2023-03-13T10:32:23.406Z,986.75
2023-03-13T10:33:24.013Z,986.71
2023-03-13T10:34:23.459Z,986.69
2023-03-13T10:35:22.977Z,986.81
2023-03-13T10:36:23.459Z,986.79
2023-03-13T10:37:23.011Z,986.76
2023-03-13T10:38:25.605Z,986.66
2023-03-13T10:39:23.944Z,986.78
2023-03-13T10:40:23.839Z,986.80
2023-03-13T10:41:22.935Z,986.74
2023-03-13T10:42:22.992Z,986.76
2023-03-13T10:43:22.964Z,986.68
2023-03-13T10:44:22.931Z,986.87
2023-03-13T10:45:25.242Z,986.40
2023-03-13T10:46:22.929Z,986.66
2023-03-13T10:47:23.687Z,986.59
2023-03-13T10:48:22.909Z,986.72
2023-03-13T10:49:23.755Z,986.64
2023-03-13T10:50:22.869Z,986.67
2023-03-13T10:51:23.807Z,986.55
2023-03-13T10:52:22.880Z,986.57
2023-03-13T10:53:23.627Z,986.52
2023-03-13T10:54:23.794Z,986.50
2023-03-13T10:55:23.707Z,986.59
2023-03-13T10:56:24.300Z,986.63
2023-03-13T10:57:23.750Z,986.69
2023-03-13T10:58:22.870Z,986.65
2023-03-13T10:59:22.830Z,986.50
2023-03-13T11:00:22.860Z,986.51
2023-03-13T11:01:22.786Z,986.39
2023-03-13T11:02:22.821Z,986.49
2023-03-13T11:03:23.868Z,986.43
2023-03-13T11:04:22.988Z,986.37
2023-03-13T11:05:22.763Z,986.31
2023-03-13T11:06:23.647Z,986.23
2023-03-13T11:07:22.995Z,986.33
2023-03-13T11:08:23.781Z,986.31
2023-03-13T11:09:22.820Z,986.26
2023-03-13T11:10:23.540Z,986.31
2023-03-13T11:11:22.823Z,986.11
2023-03-13T11:12:23.642Z,986.22
2023-03-13T11:13:35.491Z,986.28
2023-03-13T11:14:23.269Z,986.15
2023-03-13T11:15:23.529Z,986.12
2023-03-13T11:16:23.594Z,986.02
2023-03-13T11:17:23.649Z,985.96
2023-03-13T11:18:22.880Z,985.93
2023-03-13T11:19:22.669Z,986.00
2023-03-13T11:20:23.587Z,986.10
2023-03-13T11:21:23.497Z,986.07
2023-03-13T11:22:22.693Z,986.00
2023-03-13T11:23:22.655Z,986.01
2023-03-13T11:24:22.699Z,986.11
2023-03-13T11:25:23.625Z,985.92
2023-03-13T11:26:22.632Z,986.01
2023-03-13T11:27:22.968Z,985.91
2023-03-13T11:28:22.949Z,985.95
2023-03-13T11:29:22.639Z,985.85
2023-03-13T11:30:22.614Z,985.83
2023-03-13T11:31:22.639Z,985.99
2023-03-13T11:32:22.639Z,985.82
2023-03-13T11:33:23.366Z,985.86
2023-03-13T11:34:23.538Z,985.89
2023-03-13T11:35:22.562Z,985.82
2023-03-13T11:36:22.539Z,985.74
2023-03-13T11:37:22.612Z,985.84
2023-03-13T11:38:23.405Z,985.71
2023-03-13T11:39:23.298Z,985.62
2023-03-13T11:40:22.542Z,985.97
2023-03-13T11:41:23.393Z,985.90
2023-03-13T11:42:22.572Z,985.69
2023-03-13T11:43:25.788Z,985.63
2023-03-13T11:44:23.346Z,985.52
2023-03-13T11:45:23.513Z,985.57
2023-03-13T11:46:22.610Z,985.67
2023-03-13T11:47:22.456Z,985.54
2023-03-13T11:48:23.459Z,985.75
2023-03-13T11:49:23.366Z,985.53
2023-03-13T11:50:22.455Z,985.60
2023-03-13T11:51:22.483Z,985.51
2023-03-13T11:52:22.723Z,985.62
2023-03-13T11:53:22.683Z,985.63
2023-03-13T11:54:22.449Z,985.60
2023-03-13T11:55:22.725Z,985.51
2023-03-13T11:56:22.431Z,985.55
2023-03-13T11:57:23.365Z,985.56
2023-03-13T11:58:22.382Z,985.54
2023-03-13T11:59:22.518Z,985.55
2023-03-13T12:00:23.349Z,985.42
2023-03-13T12:01:23.283Z,985.42
2023-03-13T12:02:22.424Z,985.40
2023-03-13T12:03:22.581Z,985.37
2023-03-13T12:04:22.366Z,985.38
2023-03-13T12:05:22.568Z,985.30
2023-03-13T12:06:28.284Z,985.30
2023-03-13T12:07:23.174Z,985.36
2023-03-13T12:08:23.341Z,985.38
2023-03-13T12:09:22.476Z,985.42
2023-03-13T12:10:22.334Z,985.38
2023-03-13T12:11:23.305Z,985.24
2023-03-13T12:12:23.780Z,985.28
2023-03-13T12:13:23.105Z,985.43
2023-03-13T12:14:22.867Z,985.17
2023-03-13T12:15:23.181Z,985.13
2023-03-13T12:16:23.101Z,985.17
2023-03-13T12:17:23.298Z,985.09
2023-03-13T12:18:23.717Z,985.09
2023-03-13T12:19:23.091Z,985.19
2023-03-13T12:20:23.203Z,985.14
2023-03-13T12:21:22.283Z,985.09
2023-03-13T12:22:23.017Z,985.17
2023-03-13T12:23:23.175Z,985.02
2023-03-13T12:24:23.078Z,985.06
2023-03-13T12:25:22.249Z,985.06
2023-03-13T12:26:23.157Z,985.08
2023-03-13T12:27:22.713Z,985.05
2023-03-13T12:28:23.867Z,984.99